Ashley Falls, Massachusetts
Current Conditions -  °F | °C
As of 10:54 PM on Sunday 25 Jan 2015 (Local Time) from KPSF Reporting Station
Clear Clear  
Wind Chill:   Ceiling: Unl
Heat Index: 11°   Visibility: 10mi
Dew Point:   Wind: 6mph
Humidity: 67%   Direction: 200°SSW
Pressure: 29.95"   Gusts: NA
Location:  42.06°N, 73.34°W
Report Text: KPSF 260354Z AUTO 20005KT 10SM CLR M12/M17 A2995 RMK AO2 SLP164 T11171167
Loading
Personal Weather Stations






























Interactive Weather Map New forecast layout! Learn more

10-Day Weather Forecast

Advertisements
Track Severe Weather on mobile